sensor_id;sensor_type;location;lat;lon;timestamp;P1;durP1;ratioP1;P2;durP2;ratioP2
7487;SDS011;3785;52.260;4.728;2023-08-01T00:02:11;7.15;;;1.98;;
7487;SDS011;3785;52.260;4.728;2023-08-01T00:05:32;5.22;;;1.90;;
7487;SDS011;3785;52.260;4.728;2023-08-01T00:08:53;4.47;;;1.88;;
7487;SDS011;3785;52.260;4.728;2023-08-01T00:12:14;5.53;;;2.15;;
7487;SDS011;3785;52.260;4.728;2023-08-01T00:15:35;3.65;;;1.65;;
7487;SDS011;3785;52.260;4.728;2023-08-01T00:18:56;4.55;;;1.50;;
7487;SDS011;3785;52.260;4.728;2023-08-01T00:22:17;6.05;;;2.10;;
7487;SDS011;3785;52.260;4.728;2023-08-01T00:25:38;5.53;;;1.88;;
7487;SDS011;3785;52.260;4.728;2023-08-01T00:28:59;3.53;;;1.98;;
7487;SDS011;3785;52.260;4.728;2023-08-01T00:32:20;6.65;;;2.22;;
7487;SDS011;3785;52.260;4.728;2023-08-01T00:35:41;3.47;;;1.58;;
7487;SDS011;3785;52.260;4.728;2023-08-01T00:39:02;3.63;;;1.77;;
7487;SDS011;3785;52.260;4.728;2023-08-01T00:42:23;3.97;;;1.60;;
7487;SDS011;3785;52.260;4.728;2023-08-01T00:45:44;6.70;;;2.17;;
7487;SDS011;3785;52.260;4.728;2023-08-01T00:49:06;5.72;;;1.73;;
7487;SDS011;3785;52.260;4.728;2023-08-01T00:52:28;3.72;;;1.40;;
7487;SDS011;3785;52.260;4.728;2023-08-01T00:55:50;4.38;;;1.58;;
7487;SDS011;3785;52.260;4.728;2023-08-01T00:59:13;3.85;;;1.83;;
7487;SDS011;3785;52.260;4.728;2023-08-01T01:02:34;6.80;;;2.00;;
7487;SDS011;3785;52.260;4.728;2023-08-01T01:05:57;4.53;;;1.88;;
7487;SDS011;3785;52.260;4.728;2023-08-01T01:09:18;3.80;;;1.65;;
7487;SDS011;3785;52.260;4.728;2023-08-01T01:12:40;6.50;;;2.50;;
7487;SDS011;3785;52.260;4.728;2023-08-01T01:16:01;6.25;;;1.98;;
7487;SDS011;3785;52.260;4.728;2023-08-01T01:19:22;4.47;;;2.05;;
7487;SDS011;3785;52.260;4.728;2023-08-01T01:22:43;4.45;;;1.98;;
7487;SDS011;3785;52.260;4.728;2023-08-01T01:26:04;5.97;;;2.22;;
7487;SDS011;3785;52.260;4.728;2023-08-01T01:29:26;4.15;;;1.85;;
7487;SDS011;3785;52.260;4.728;2023-08-01T01:32:47;6.22;;;2.08;;
7487;SDS011;3785;52.260;4.728;2023-08-01T01:36:09;4.07;;;2.00;;
7487;SDS011;3785;52.260;4.728;2023-08-01T01:39:30;6.80;;;1.88;;
7487;SDS011;3785;52.260;4.728;2023-08-01T01:42:51;4.15;;;1.50;;
7487;SDS011;3785;52.260;4.728;2023-08-01T01:46:12;2.90;;;1.30;;
7487;SDS011;3785;52.260;4.728;2023-08-01T01:49:33;4.20;;;1.05;;
7487;SDS011;3785;52.260;4.728;2023-08-01T01:52:54;3.35;;;0.90;;
7487;SDS011;3785;52.260;4.728;2023-08-01T01:56:15;1.85;;;0.88;;
7487;SDS011;3785;52.260;4.728;2023-08-01T01:59:36;2.03;;;0.85;;
7487;SDS011;3785;52.260;4.728;2023-08-01T02:02:57;3.65;;;0.88;;
7487;SDS011;3785;52.260;4.728;2023-08-01T02:06:18;3.13;;;0.73;;
7487;SDS011;3785;52.260;4.728;2023-08-01T02:09:39;2.00;;;0.77;;
7487;SDS011;3785;52.260;4.728;2023-08-01T02:13:00;2.63;;;1.00;;
7487;SDS011;3785;52.260;4.728;2023-08-01T02:16:20;2.60;;;0.90;;
7487;SDS011;3785;52.260;4.728;2023-08-01T02:19:41;2.58;;;0.88;;
7487;SDS011;3785;52.260;4.728;2023-08-01T02:23:02;1.27;;;0.70;;
7487;SDS011;3785;52.260;4.728;2023-08-01T02:26:23;2.15;;;0.90;;
7487;SDS011;3785;52.260;4.728;2023-08-01T02:29:44;1.90;;;0.80;;
7487;SDS011;3785;52.260;4.728;2023-08-01T02:33:05;4.22;;;1.10;;
7487;SDS011;3785;52.260;4.728;2023-08-01T02:36:26;2.22;;;1.45;;
7487;SDS011;3785;52.260;4.728;2023-08-01T02:39:47;2.78;;;1.20;;
7487;SDS011;3785;52.260;4.728;2023-08-01T02:43:08;3.65;;;1.30;;
7487;SDS011;3785;52.260;4.728;2023-08-01T02:46:29;3.33;;;1.48;;
7487;SDS011;3785;52.260;4.728;2023-08-01T02:49:51;4.88;;;1.77;;
7487;SDS011;3785;52.260;4.728;2023-08-01T02:53:12;4.95;;;2.10;;
7487;SDS011;3785;52.260;4.728;2023-08-01T02:56:33;5.15;;;2.10;;
7487;SDS011;3785;52.260;4.728;2023-08-01T02:59:54;5.55;;;2.13;;
7487;SDS011;3785;52.260;4.728;2023-08-01T03:03:15;4.63;;;2.05;;
7487;SDS011;3785;52.260;4.728;2023-08-01T03:06:36;4.80;;;1.95;;
7487;SDS011;3785;52.260;4.728;2023-08-01T03:09:56;3.72;;;1.83;;
7487;SDS011;3785;52.260;4.728;2023-08-01T03:13:17;6.78;;;2.13;;
7487;SDS011;3785;52.260;4.728;2023-08-01T03:16:38;6.25;;;2.45;;
7487;SDS011;3785;52.260;4.728;2023-08-01T03:19:59;4.38;;;1.98;;
7487;SDS011;3785;52.260;4.728;2023-08-01T03:23:20;4.13;;;2.20;;
7487;SDS011;3785;52.260;4.728;2023-08-01T03:26:41;5.80;;;2.30;;
7487;SDS011;3785;52.260;4.728;2023-08-01T03:30:02;6.28;;;2.22;;
7487;SDS011;3785;52.260;4.728;2023-08-01T03:33:24;7.43;;;2.30;;
7487;SDS011;3785;52.260;4.728;2023-08-01T03:36:45;7.10;;;2.60;;
7487;SDS011;3785;52.260;4.728;2023-08-01T03:40:06;6.50;;;2.20;;
7487;SDS011;3785;52.260;4.728;2023-08-01T03:43:30;4.75;;;2.22;;
7487;SDS011;3785;52.260;4.728;2023-08-01T03:46:51;5.75;;;2.13;;
7487;SDS011;3785;52.260;4.728;2023-08-01T03:50:12;6.85;;;2.13;;
7487;SDS011;3785;52.260;4.728;2023-08-01T03:53:33;7.10;;;2.08;;
7487;SDS011;3785;52.260;4.728;2023-08-01T03:56:54;4.43;;;2.03;;
7487;SDS011;3785;52.260;4.728;2023-08-01T04:00:15;4.20;;;2.20;;
7487;SDS011;3785;52.260;4.728;2023-08-01T04:03:38;5.55;;;2.05;;
7487;SDS011;3785;52.260;4.728;2023-08-01T04:06:59;4.97;;;1.48;;
7487;SDS011;3785;52.260;4.728;2023-08-01T04:10:20;3.35;;;1.70;;
7487;SDS011;3785;52.260;4.728;2023-08-01T04:13:41;5.63;;;2.30;;
7487;SDS011;3785;52.260;4.728;2023-08-01T04:17:02;6.50;;;2.00;;
7487;SDS011;3785;52.260;4.728;2023-08-01T04:20:23;6.78;;;1.83;;
7487;SDS011;3785;52.260;4.728;2023-08-01T04:23:44;4.70;;;1.70;;
7487;SDS011;3785;52.260;4.728;2023-08-01T04:27:05;4.10;;;1.88;;
7487;SDS011;3785;52.260;4.728;2023-08-01T04:30:26;3.88;;;1.52;;
7487;SDS011;3785;52.260;4.728;2023-08-01T04:33:47;7.90;;;1.85;;
7487;SDS011;3785;52.260;4.728;2023-08-01T04:37:08;3.33;;;1.70;;
7487;SDS011;3785;52.260;4.728;2023-08-01T04:40:30;3.50;;;1.63;;
7487;SDS011;3785;52.260;4.728;2023-08-01T04:43:51;4.47;;;1.80;;
7487;SDS011;3785;52.260;4.728;2023-08-01T04:47:13;3.95;;;1.73;;
7487;SDS011;3785;52.260;4.728;2023-08-01T04:50:34;4.82;;;1.67;;
7487;SDS011;3785;52.260;4.728;2023-08-01T04:53:55;3.55;;;1.50;;
7487;SDS011;3785;52.260;4.728;2023-08-01T04:57:16;5.70;;;1.42;;
7487;SDS011;3785;52.260;4.728;2023-08-01T05:00:37;3.33;;;1.15;;
7487;SDS011;3785;52.260;4.728;2023-08-01T05:03:58;3.65;;;1.50;;
7487;SDS011;3785;52.260;4.728;2023-08-01T05:07:19;6.80;;;1.50;;
7487;SDS011;3785;52.260;4.728;2023-08-01T05:10:40;6.20;;;1.63;;
7487;SDS011;3785;52.260;4.728;2023-08-01T05:14:01;5.28;;;1.60;;
7487;SDS011;3785;52.260;4.728;2023-08-01T05:17:22;3.17;;;1.33;;
7487;SDS011;3785;52.260;4.728;2023-08-01T05:20:43;4.47;;;1.60;;
7487;SDS011;3785;52.260;4.728;2023-08-01T05:24:04;5.03;;;1.73;;
7487;SDS011;3785;52.260;4.728;2023-08-01T05:27:25;5.18;;;1.63;;
7487;SDS011;3785;52.260;4.728;2023-08-01T05:30:46;5.03;;;1.55;;
7487;SDS011;3785;52.260;4.728;2023-08-01T05:34:07;4.18;;;1.60;;
7487;SDS011;3785;52.260;4.728;2023-08-01T05:37:28;4.78;;;1.42;;
7487;SDS011;3785;52.260;4.728;2023-08-01T05:40:49;4.75;;;1.30;;
7487;SDS011;3785;52.260;4.728;2023-08-01T05:44:10;3.33;;;1.10;;
7487;SDS011;3785;52.260;4.728;2023-08-01T05:47:31;3.33;;;1.40;;
7487;SDS011;3785;52.260;4.728;2023-08-01T05:50:52;2.88;;;1.10;;
7487;SDS011;3785;52.260;4.728;2023-08-01T05:54:15;6.30;;;1.60;;
7487;SDS011;3785;52.260;4.728;2023-08-01T05:57:36;3.65;;;1.33;;
7487;SDS011;3785;52.260;4.728;2023-08-01T06:00:57;2.70;;;1.58;;
7487;SDS011;3785;52.260;4.728;2023-08-01T06:04:18;3.20;;;1.23;;
7487;SDS011;3785;52.260;4.728;2023-08-01T06:07:39;3.75;;;1.35;;
7487;SDS011;3785;52.260;4.728;2023-08-01T06:11:00;3.63;;;1.15;;
7487;SDS011;3785;52.260;4.728;2023-08-01T06:14:21;2.30;;;0.90;;
7487;SDS011;3785;52.260;4.728;2023-08-01T06:17:42;5.63;;;1.30;;
7487;SDS011;3785;52.260;4.728;2023-08-01T06:21:03;3.28;;;1.35;;
7487;SDS011;3785;52.260;4.728;2023-08-01T06:24:24;4.05;;;1.15;;
7487;SDS011;3785;52.260;4.728;2023-08-01T06:27:44;2.72;;;1.02;;
7487;SDS011;3785;52.260;4.728;2023-08-01T06:31:05;5.28;;;1.40;;
7487;SDS011;3785;52.260;4.728;2023-08-01T06:34:26;4.97;;;1.42;;
7487;SDS011;3785;52.260;4.728;2023-08-01T06:37:47;1.92;;;1.23;;
7487;SDS011;3785;52.260;4.728;2023-08-01T06:41:08;8.18;;;1.48;;
7487;SDS011;3785;52.260;4.728;2023-08-01T06:44:29;4.15;;;1.52;;
7487;SDS011;3785;52.260;4.728;2023-08-01T06:47:50;4.68;;;1.50;;
7487;SDS011;3785;52.260;4.728;2023-08-01T06:51:12;2.15;;;1.13;;
7487;SDS011;3785;52.260;4.728;2023-08-01T06:54:33;4.18;;;1.30;;
7487;SDS011;3785;52.260;4.728;2023-08-01T06:57:54;3.50;;;1.30;;
7487;SDS011;3785;52.260;4.728;2023-08-01T07:01:15;2.25;;;0.95;;
7487;SDS011;3785;52.260;4.728;2023-08-01T07:04:36;7.40;;;1.42;;
7487;SDS011;3785;52.260;4.728;2023-08-01T07:07:58;6.22;;;1.30;;
7487;SDS011;3785;52.260;4.728;2023-08-01T07:11:19;2.08;;;1.20;;
7487;SDS011;3785;52.260;4.728;2023-08-01T07:14:40;3.33;;;1.60;;
7487;SDS011;3785;52.260;4.728;2023-08-01T07:18:01;4.55;;;1.42;;
7487;SDS011;3785;52.260;4.728;2023-08-01T07:21:23;4.28;;;1.65;;
7487;SDS011;3785;52.260;4.728;2023-08-01T07:24:44;4.38;;;1.38;;
7487;SDS011;3785;52.260;4.728;2023-08-01T07:28:04;5.32;;;1.60;;
7487;SDS011;3785;52.260;4.728;2023-08-01T07:31:25;2.25;;;1.20;;
7487;SDS011;3785;52.260;4.728;2023-08-01T07:34:46;3.65;;;1.38;;
7487;SDS011;3785;52.260;4.728;2023-08-01T07:38:07;3.17;;;1.42;;
7487;SDS011;3785;52.260;4.728;2023-08-01T07:41:29;3.75;;;1.58;;
7487;SDS011;3785;52.260;4.728;2023-08-01T07:44:50;5.85;;;1.80;;
7487;SDS011;3785;52.260;4.728;2023-08-01T07:48:11;3.90;;;1.73;;
7487;SDS011;3785;52.260;4.728;2023-08-01T07:51:32;3.65;;;1.45;;
7487;SDS011;3785;52.260;4.728;2023-08-01T07:54:54;2.88;;;1.70;;
7487;SDS011;3785;52.260;4.728;2023-08-01T07:58:17;4.43;;;1.73;;
7487;SDS011;3785;52.260;4.728;2023-08-01T08:01:38;5.45;;;2.08;;
7487;SDS011;3785;52.260;4.728;2023-08-01T08:05:00;3.00;;;1.40;;
7487;SDS011;3785;52.260;4.728;2023-08-01T08:08:21;4.60;;;2.03;;
7487;SDS011;3785;52.260;4.728;2023-08-01T08:11:42;5.03;;;1.90;;
7487;SDS011;3785;52.260;4.728;2023-08-01T08:15:03;3.63;;;1.58;;
7487;SDS011;3785;52.260;4.728;2023-08-01T08:18:24;5.40;;;1.95;;
7487;SDS011;3785;52.260;4.728;2023-08-01T08:21:45;4.90;;;1.75;;
7487;SDS011;3785;52.260;4.728;2023-08-01T08:25:06;4.95;;;1.70;;
7487;SDS011;3785;52.260;4.728;2023-08-01T08:28:28;5.18;;;1.83;;
7487;SDS011;3785;52.260;4.728;2023-08-01T08:31:50;5.15;;;1.50;;
7487;SDS011;3785;52.260;4.728;2023-08-01T08:35:11;5.32;;;1.60;;
7487;SDS011;3785;52.260;4.728;2023-08-01T08:38:32;3.10;;;1.48;;
7487;SDS011;3785;52.260;4.728;2023-08-01T08:41:53;5.90;;;1.60;;
7487;SDS011;3785;52.260;4.728;2023-08-01T08:45:14;5.25;;;1.85;;
7487;SDS011;3785;52.260;4.728;2023-08-01T08:48:39;6.28;;;1.42;;
7487;SDS011;3785;52.260;4.728;2023-08-01T08:52:00;3.03;;;1.48;;
7487;SDS011;3785;52.260;4.728;2023-08-01T08:55:23;4.78;;;1.33;;
7487;SDS011;3785;52.260;4.728;2023-08-01T08:58:47;4.32;;;1.58;;
7487;SDS011;3785;52.260;4.728;2023-08-01T09:02:08;6.18;;;1.20;;
7487;SDS011;3785;52.260;4.728;2023-08-01T09:05:30;4.93;;;1.20;;
7487;SDS011;3785;52.260;4.728;2023-08-01T09:09:01;4.60;;;1.63;;
7487;SDS011;3785;52.260;4.728;2023-08-01T09:12:22;2.47;;;0.95;;
7487;SDS011;3785;52.260;4.728;2023-08-01T09:15:43;3.55;;;1.17;;
7487;SDS011;3785;52.260;4.728;2023-08-01T09:19:05;3.00;;;1.10;;
7487;SDS011;3785;52.260;4.728;2023-08-01T09:22:26;2.58;;;1.23;;
7487;SDS011;3785;52.260;4.728;2023-08-01T09:25:47;2.15;;;1.10;;
7487;SDS011;3785;52.260;4.728;2023-08-01T09:29:08;3.30;;;1.23;;
7487;SDS011;3785;52.260;4.728;2023-08-01T09:32:29;3.28;;;1.35;;
7487;SDS011;3785;52.260;4.728;2023-08-01T09:35:50;4.03;;;1.30;;
7487;SDS011;3785;52.260;4.728;2023-08-01T09:39:15;2.92;;;1.40;;
7487;SDS011;3785;52.260;4.728;2023-08-01T09:42:37;3.58;;;1.10;;
7487;SDS011;3785;52.260;4.728;2023-08-01T09:45:59;3.33;;;1.38;;
7487;SDS011;3785;52.260;4.728;2023-08-01T09:49:19;3.67;;;1.05;;
7487;SDS011;3785;52.260;4.728;2023-08-01T09:52:40;2.63;;;1.13;;
7487;SDS011;3785;52.260;4.728;2023-08-01T09:56:02;4.35;;;1.40;;
7487;SDS011;3785;52.260;4.728;2023-08-01T09:59:23;4.97;;;1.17;;
7487;SDS011;3785;52.260;4.728;2023-08-01T10:02:45;3.28;;;1.10;;
7487;SDS011;3785;52.260;4.728;2023-08-01T10:06:06;4.75;;;1.23;;
7487;SDS011;3785;52.260;4.728;2023-08-01T10:09:29;4.70;;;1.40;;
7487;SDS011;3785;52.260;4.728;2023-08-01T10:12:51;3.13;;;1.08;;
7487;SDS011;3785;52.260;4.728;2023-08-01T10:16:13;5.55;;;1.10;;
7487;SDS011;3785;52.260;4.728;2023-08-01T10:19:34;4.35;;;1.25;;
7487;SDS011;3785;52.260;4.728;2023-08-01T10:22:55;3.92;;;0.98;;
7487;SDS011;3785;52.260;4.728;2023-08-01T10:26:16;3.08;;;1.13;;
7487;SDS011;3785;52.260;4.728;2023-08-01T10:29:38;3.35;;;1.00;;
7487;SDS011;3785;52.260;4.728;2023-08-01T10:32:59;5.05;;;1.20;;
7487;SDS011;3785;52.260;4.728;2023-08-01T10:36:21;5.63;;;1.20;;
7487;SDS011;3785;52.260;4.728;2023-08-01T10:39:43;2.90;;;1.10;;
7487;SDS011;3785;52.260;4.728;2023-08-01T10:43:04;2.42;;;1.10;;
7487;SDS011;3785;52.260;4.728;2023-08-01T10:46:25;2.30;;;1.05;;
7487;SDS011;3785;52.260;4.728;2023-08-01T10:49:46;3.45;;;0.90;;
7487;SDS011;3785;52.260;4.728;2023-08-01T10:53:08;3.67;;;1.50;;
7487;SDS011;3785;52.260;4.728;2023-08-01T10:56:29;3.17;;;1.23;;
7487;SDS011;3785;52.260;4.728;2023-08-01T10:59:51;4.18;;;1.38;;
7487;SDS011;3785;52.260;4.728;2023-08-01T11:03:12;2.45;;;0.90;;
7487;SDS011;3785;52.260;4.728;2023-08-01T11:06:42;4.47;;;1.20;;
7487;SDS011;3785;52.260;4.728;2023-08-01T11:13:26;3.65;;;1.45;;
7487;SDS011;3785;52.260;4.728;2023-08-01T11:16:47;2.60;;;1.33;;
7487;SDS011;3785;52.260;4.728;2023-08-01T11:20:09;5.10;;;1.40;;
7487;SDS011;3785;52.260;4.728;2023-08-01T11:23:30;3.35;;;1.08;;
7487;SDS011;3785;52.260;4.728;2023-08-01T11:26:51;2.45;;;1.02;;
7487;SDS011;3785;52.260;4.728;2023-08-01T11:30:13;4.15;;;1.30;;
7487;SDS011;3785;52.260;4.728;2023-08-01T11:33:34;3.90;;;1.05;;
7487;SDS011;3785;52.260;4.728;2023-08-01T11:36:55;2.05;;;0.98;;
7487;SDS011;3785;52.260;4.728;2023-08-01T11:40:16;1.83;;;0.70;;
7487;SDS011;3785;52.260;4.728;2023-08-01T11:43:38;2.92;;;0.90;;
7487;SDS011;3785;52.260;4.728;2023-08-01T11:46:59;3.40;;;1.00;;
7487;SDS011;3785;52.260;4.728;2023-08-01T11:50:21;3.83;;;1.00;;
7487;SDS011;3785;52.260;4.728;2023-08-01T11:53:43;4.93;;;1.30;;
7487;SDS011;3785;52.260;4.728;2023-08-01T11:57:04;2.80;;;1.00;;
7487;SDS011;3785;52.260;4.728;2023-08-01T12:00:26;4.72;;;1.20;;
7487;SDS011;3785;52.260;4.728;2023-08-01T12:03:53;2.60;;;0.95;;
7487;SDS011;3785;52.260;4.728;2023-08-01T12:07:15;5.63;;;0.93;;
7487;SDS011;3785;52.260;4.728;2023-08-01T12:10:37;2.88;;;1.08;;
7487;SDS011;3785;52.260;4.728;2023-08-01T12:17:29;0.82;;;0.52;;
7487;SDS011;3785;52.260;4.728;2023-08-01T12:20:51;1.85;;;0.65;;
7487;SDS011;3785;52.260;4.728;2023-08-01T12:24:12;2.00;;;0.70;;
7487;SDS011;3785;52.260;4.728;2023-08-01T12:27:33;2.13;;;0.68;;
7487;SDS011;3785;52.260;4.728;2023-08-01T12:30:54;4.10;;;1.30;;
7487;SDS011;3785;52.260;4.728;2023-08-01T12:34:18;3.67;;;1.05;;
7487;SDS011;3785;52.260;4.728;2023-08-01T12:37:39;6.93;;;1.52;;
7487;SDS011;3785;52.260;4.728;2023-08-01T12:41:00;2.95;;;1.20;;
7487;SDS011;3785;52.260;4.728;2023-08-01T12:44:21;5.38;;;1.40;;
7487;SDS011;3785;52.260;4.728;2023-08-01T12:47:42;5.50;;;1.15;;
7487;SDS011;3785;52.260;4.728;2023-08-01T12:51:03;3.83;;;2.20;;
7487;SDS011;3785;52.260;4.728;2023-08-01T12:54:24;6.45;;;1.50;;
7487;SDS011;3785;52.260;4.728;2023-08-01T12:57:45;3.03;;;1.20;;
7487;SDS011;3785;52.260;4.728;2023-08-01T13:01:06;3.65;;;1.38;;
7487;SDS011;3785;52.260;4.728;2023-08-01T13:04:27;3.90;;;1.40;;
7487;SDS011;3785;52.260;4.728;2023-08-01T13:07:48;7.57;;;1.67;;
7487;SDS011;3785;52.260;4.728;2023-08-01T13:11:10;4.07;;;1.10;;
7487;SDS011;3785;52.260;4.728;2023-08-01T13:14:32;4.60;;;1.02;;
7487;SDS011;3785;52.260;4.728;2023-08-01T13:17:53;2.55;;;0.93;;
7487;SDS011;3785;52.260;4.728;2023-08-01T13:21:14;3.08;;;1.35;;
7487;SDS011;3785;52.260;4.728;2023-08-01T13:24:35;4.50;;;0.95;;
7487;SDS011;3785;52.260;4.728;2023-08-01T13:27:56;2.70;;;0.93;;
7487;SDS011;3785;52.260;4.728;2023-08-01T13:31:17;2.72;;;0.80;;
7487;SDS011;3785;52.260;4.728;2023-08-01T13:34:38;2.13;;;0.90;;
7487;SDS011;3785;52.260;4.728;2023-08-01T13:37:59;2.97;;;1.00;;
7487;SDS011;3785;52.260;4.728;2023-08-01T13:41:20;2.80;;;0.95;;
7487;SDS011;3785;52.260;4.728;2023-08-01T13:44:41;3.33;;;1.35;;
7487;SDS011;3785;52.260;4.728;2023-08-01T13:48:02;4.57;;;0.93;;
7487;SDS011;3785;52.260;4.728;2023-08-01T13:51:23;1.27;;;0.68;;
7487;SDS011;3785;52.260;4.728;2023-08-01T13:54:44;2.47;;;0.98;;
7487;SDS011;3785;52.260;4.728;2023-08-01T13:58:05;1.65;;;0.95;;
7487;SDS011;3785;52.260;4.728;2023-08-01T14:01:26;4.90;;;1.10;;
7487;SDS011;3785;52.260;4.728;2023-08-01T14:04:50;2.13;;;0.95;;
7487;SDS011;3785;52.260;4.728;2023-08-01T14:08:11;4.15;;;1.10;;
7487;SDS011;3785;52.260;4.728;2023-08-01T14:11:32;4.22;;;1.13;;
7487;SDS011;3785;52.260;4.728;2023-08-01T14:14:53;2.08;;;0.82;;
7487;SDS011;3785;52.260;4.728;2023-08-01T14:18:14;1.52;;;0.70;;
7487;SDS011;3785;52.260;4.728;2023-08-01T14:21:36;2.20;;;0.82;;
7487;SDS011;3785;52.260;4.728;2023-08-01T14:24:57;2.83;;;1.23;;
7487;SDS011;3785;52.260;4.728;2023-08-01T14:28:18;2.25;;;0.95;;
7487;SDS011;3785;52.260;4.728;2023-08-01T14:31:39;2.67;;;0.98;;
7487;SDS011;3785;52.260;4.728;2023-08-01T14:35:00;5.53;;;1.33;;
7487;SDS011;3785;52.260;4.728;2023-08-01T14:38:21;4.32;;;1.45;;
7487;SDS011;3785;52.260;4.728;2023-08-01T14:41:42;3.70;;;1.45;;
7487;SDS011;3785;52.260;4.728;2023-08-01T14:45:03;5.10;;;1.65;;
7487;SDS011;3785;52.260;4.728;2023-08-01T14:48:24;5.53;;;1.30;;
7487;SDS011;3785;52.260;4.728;2023-08-01T14:51:47;4.15;;;1.50;;
7487;SDS011;3785;52.260;4.728;2023-08-01T14:55:09;7.68;;;1.80;;
7487;SDS011;3785;52.260;4.728;2023-08-01T14:58:31;9.35;;;1.63;;
7487;SDS011;3785;52.260;4.728;2023-08-01T15:01:52;3.58;;;1.50;;
7487;SDS011;3785;52.260;4.728;2023-08-01T15:05:13;3.95;;;1.25;;
7487;SDS011;3785;52.260;4.728;2023-08-01T15:08:34;5.35;;;1.45;;
7487;SDS011;3785;52.260;4.728;2023-08-01T15:11:55;3.92;;;1.40;;
7487;SDS011;3785;52.260;4.728;2023-08-01T15:15:16;3.13;;;1.20;;
7487;SDS011;3785;52.260;4.728;2023-08-01T15:18:37;2.30;;;1.00;;
7487;SDS011;3785;52.260;4.728;2023-08-01T15:21:58;2.78;;;1.10;;
7487;SDS011;3785;52.260;4.728;2023-08-01T15:25:19;1.80;;;0.93;;
7487;SDS011;3785;52.260;4.728;2023-08-01T15:28:40;3.97;;;1.10;;
7487;SDS011;3785;52.260;4.728;2023-08-01T15:32:01;2.70;;;1.35;;
7487;SDS011;3785;52.260;4.728;2023-08-01T15:35:25;3.10;;;0.90;;
7487;SDS011;3785;52.260;4.728;2023-08-01T15:38:48;2.88;;;0.98;;
7487;SDS011;3785;52.260;4.728;2023-08-01T15:42:09;3.10;;;0.70;;
7487;SDS011;3785;52.260;4.728;2023-08-01T15:45:30;2.53;;;1.25;;
7487;SDS011;3785;52.260;4.728;2023-08-01T15:48:51;3.40;;;0.93;;
7487;SDS011;3785;52.260;4.728;2023-08-01T15:52:12;1.55;;;0.60;;
7487;SDS011;3785;52.260;4.728;2023-08-01T15:55:33;3.47;;;1.20;;
7487;SDS011;3785;52.260;4.728;2023-08-01T15:58:54;3.83;;;0.95;;
7487;SDS011;3785;52.260;4.728;2023-08-01T16:02:15;3.92;;;1.33;;
7487;SDS011;3785;52.260;4.728;2023-08-01T16:05:36;2.50;;;0.70;;
7487;SDS011;3785;52.260;4.728;2023-08-01T16:08:57;3.70;;;0.85;;
7487;SDS011;3785;52.260;4.728;2023-08-01T16:12:18;3.22;;;1.13;;
7487;SDS011;3785;52.260;4.728;2023-08-01T16:15:39;3.75;;;0.85;;
7487;SDS011;3785;52.260;4.728;2023-08-01T16:19:01;4.85;;;1.10;;
7487;SDS011;3785;52.260;4.728;2023-08-01T16:22:21;1.52;;;0.65;;
7487;SDS011;3785;52.260;4.728;2023-08-01T16:25:42;2.47;;;0.70;;
7487;SDS011;3785;52.260;4.728;2023-08-01T16:29:03;3.47;;;0.80;;
7487;SDS011;3785;52.260;4.728;2023-08-01T16:32:24;3.25;;;0.75;;
7487;SDS011;3785;52.260;4.728;2023-08-01T16:35:45;1.63;;;0.75;;
7487;SDS011;3785;52.260;4.728;2023-08-01T16:39:06;3.42;;;1.02;;
7487;SDS011;3785;52.260;4.728;2023-08-01T16:42:27;3.00;;;0.68;;
7487;SDS011;3785;52.260;4.728;2023-08-01T16:45:48;1.55;;;0.68;;
7487;SDS011;3785;52.260;4.728;2023-08-01T16:49:09;2.95;;;0.57;;
7487;SDS011;3785;52.260;4.728;2023-08-01T16:52:30;2.38;;;0.70;;
7487;SDS011;3785;52.260;4.728;2023-08-01T16:55:52;1.15;;;0.60;;
7487;SDS011;3785;52.260;4.728;2023-08-01T16:59:15;3.50;;;1.20;;
7487;SDS011;3785;52.260;4.728;2023-08-01T17:02:36;3.85;;;0.77;;
7487;SDS011;3785;52.260;4.728;2023-08-01T17:05:57;1.75;;;0.80;;
7487;SDS011;3785;52.260;4.728;2023-08-01T17:09:18;2.22;;;0.85;;
7487;SDS011;3785;52.260;4.728;2023-08-01T17:12:40;1.90;;;0.77;;
7487;SDS011;3785;52.260;4.728;2023-08-01T17:16:01;6.35;;;0.93;;
7487;SDS011;3785;52.260;4.728;2023-08-01T17:19:22;2.92;;;0.70;;
7487;SDS011;3785;52.260;4.728;2023-08-01T17:22:43;2.35;;;0.70;;
7487;SDS011;3785;52.260;4.728;2023-08-01T17:26:04;2.10;;;0.70;;
7487;SDS011;3785;52.260;4.728;2023-08-01T17:29:25;2.28;;;0.70;;
7487;SDS011;3785;52.260;4.728;2023-08-01T17:32:46;1.13;;;0.50;;
7487;SDS011;3785;52.260;4.728;2023-08-01T17:36:08;2.67;;;0.70;;
7487;SDS011;3785;52.260;4.728;2023-08-01T17:39:29;2.30;;;0.50;;
7487;SDS011;3785;52.260;4.728;2023-08-01T17:42:50;2.30;;;0.77;;
7487;SDS011;3785;52.260;4.728;2023-08-01T17:46:14;1.45;;;0.60;;
7487;SDS011;3785;52.260;4.728;2023-08-01T17:49:35;3.13;;;0.80;;
7487;SDS011;3785;52.260;4.728;2023-08-01T17:52:56;3.78;;;0.65;;
7487;SDS011;3785;52.260;4.728;2023-08-01T17:56:17;2.03;;;0.63;;
7487;SDS011;3785;52.260;4.728;2023-08-01T17:59:39;1.67;;;0.60;;
7487;SDS011;3785;52.260;4.728;2023-08-01T18:03:00;1.95;;;0.70;;
7487;SDS011;3785;52.260;4.728;2023-08-01T18:06:21;2.92;;;0.80;;
7487;SDS011;3785;52.260;4.728;2023-08-01T18:09:42;1.52;;;0.50;;
7487;SDS011;3785;52.260;4.728;2023-08-01T18:13:03;2.95;;;0.82;;
7487;SDS011;3785;52.260;4.728;2023-08-01T18:16:26;2.08;;;0.90;;
7487;SDS011;3785;52.260;4.728;2023-08-01T18:19:47;1.65;;;0.65;;
7487;SDS011;3785;52.260;4.728;2023-08-01T18:23:08;1.35;;;0.60;;
7487;SDS011;3785;52.260;4.728;2023-08-01T18:26:29;2.03;;;0.70;;
7487;SDS011;3785;52.260;4.728;2023-08-01T18:29:50;2.00;;;0.70;;
7487;SDS011;3785;52.260;4.728;2023-08-01T18:33:11;2.45;;;0.63;;
7487;SDS011;3785;52.260;4.728;2023-08-01T18:36:32;3.05;;;0.80;;
7487;SDS011;3785;52.260;4.728;2023-08-01T18:39:54;1.48;;;0.70;;
7487;SDS011;3785;52.260;4.728;2023-08-01T18:43:15;2.40;;;0.50;;
7487;SDS011;3785;52.260;4.728;2023-08-01T18:46:35;2.50;;;0.80;;
7487;SDS011;3785;52.260;4.728;2023-08-01T18:49:56;4.85;;;0.75;;
7487;SDS011;3785;52.260;4.728;2023-08-01T18:53:17;2.05;;;0.80;;
7487;SDS011;3785;52.260;4.728;2023-08-01T18:56:40;3.50;;;1.10;;
7487;SDS011;3785;52.260;4.728;2023-08-01T19:00:01;2.72;;;0.73;;
7487;SDS011;3785;52.260;4.728;2023-08-01T19:03:22;2.47;;;0.80;;
7487;SDS011;3785;52.260;4.728;2023-08-01T19:06:42;3.70;;;0.88;;
7487;SDS011;3785;52.260;4.728;2023-08-01T19:10:03;2.85;;;0.90;;
7487;SDS011;3785;52.260;4.728;2023-08-01T19:13:25;5.18;;;0.98;;
7487;SDS011;3785;52.260;4.728;2023-08-01T19:16:47;4.35;;;0.90;;
7487;SDS011;3785;52.260;4.728;2023-08-01T19:20:09;2.22;;;0.77;;
7487;SDS011;3785;52.260;4.728;2023-08-01T19:23:30;3.67;;;0.90;;
7487;SDS011;3785;52.260;4.728;2023-08-01T19:26:51;4.13;;;0.80;;
7487;SDS011;3785;52.260;4.728;2023-08-01T19:30:12;2.90;;;0.73;;
7487;SDS011;3785;52.260;4.728;2023-08-01T19:33:33;2.05;;;1.33;;
7487;SDS011;3785;52.260;4.728;2023-08-01T19:36:55;2.58;;;0.60;;
7487;SDS011;3785;52.260;4.728;2023-08-01T19:40:18;3.15;;;0.63;;
7487;SDS011;3785;52.260;4.728;2023-08-01T19:43:39;3.83;;;0.73;;
7487;SDS011;3785;52.260;4.728;2023-08-01T19:47:00;3.92;;;0.98;;
7487;SDS011;3785;52.260;4.728;2023-08-01T19:50:21;3.80;;;0.93;;
7487;SDS011;3785;52.260;4.728;2023-08-01T19:53:42;3.60;;;0.90;;
7487;SDS011;3785;52.260;4.728;2023-08-01T19:57:03;1.95;;;0.90;;
7487;SDS011;3785;52.260;4.728;2023-08-01T20:00:24;5.10;;;1.05;;
7487;SDS011;3785;52.260;4.728;2023-08-01T20:03:46;3.28;;;1.02;;
7487;SDS011;3785;52.260;4.728;2023-08-01T20:07:07;3.55;;;1.25;;
7487;SDS011;3785;52.260;4.728;2023-08-01T20:10:28;3.72;;;0.80;;
7487;SDS011;3785;52.260;4.728;2023-08-01T20:13:48;3.33;;;1.10;;
7487;SDS011;3785;52.260;4.728;2023-08-01T20:17:10;4.13;;;1.08;;
7487;SDS011;3785;52.260;4.728;2023-08-01T20:20:31;5.50;;;0.98;;
7487;SDS011;3785;52.260;4.728;2023-08-01T20:23:52;1.73;;;0.85;;
7487;SDS011;3785;52.260;4.728;2023-08-01T20:27:13;2.00;;;1.00;;
7487;SDS011;3785;52.260;4.728;2023-08-01T20:30:35;4.15;;;1.25;;
7487;SDS011;3785;52.260;4.728;2023-08-01T20:33:56;3.78;;;0.90;;
7487;SDS011;3785;52.260;4.728;2023-08-01T20:37:17;3.75;;;1.13;;
7487;SDS011;3785;52.260;4.728;2023-08-01T20:40:38;4.15;;;1.50;;
7487;SDS011;3785;52.260;4.728;2023-08-01T20:44:01;2.30;;;0.75;;
7487;SDS011;3785;52.260;4.728;2023-08-01T20:47:22;2.95;;;0.90;;
7487;SDS011;3785;52.260;4.728;2023-08-01T20:50:44;6.25;;;1.42;;
7487;SDS011;3785;52.260;4.728;2023-08-01T20:54:05;5.03;;;1.38;;
7487;SDS011;3785;52.260;4.728;2023-08-01T20:57:26;5.38;;;1.23;;